Time;durP1;ratioP1;P1;durP2;ratioP2;P2;SDS_P1;SDS_P2;PMS_P1;PMS_P2;Temp;Humidity;BMP_temperature;BMP_pressure;BME280_temperature;BME280_humidity;BME280_pressure;Samples;Min_cycle;Max_cycle;Signal;HPM_P1;HPM_P2
2022/05/13 00:01:07;;;;;;;5.47;1.48;;;;;;;;;;5067710;28;20613;-64
2022/05/13 00:03:33;;;;;;;5.40;1.58;;;;;;;;;;5063698;28;20205;-64
2022/05/13 00:05:59;;;;;;;4.80;1.55;;;;;;;;;;5068610;28;20548;-64
2022/05/13 00:08:24;;;;;;;4.57;1.35;;;;;;;;;;5058186;28;20197;-64
2022/05/13 00:10:50;;;;;;;3.50;1.50;;;;;;;;;;5068028;28;20228;-64
2022/05/13 00:13:15;;;;;;;6.70;1.38;;;;;;;;;;5061605;28;20473;-64
2022/05/13 00:15:42;;;;;;;7.22;1.58;;;;;;;;;;5067466;28;20681;-64
2022/05/13 00:18:08;;;;;;;7.00;1.27;;;;;;;;;;5068425;28;20192;-64
2022/05/13 00:20:34;;;;;;;7.22;1.73;;;;;;;;;;5068433;28;20181;-64
2022/05/13 00:22:59;;;;;;;4.35;1.15;;;;;;;;;;5065417;28;20242;-64
2022/05/13 00:25:29;;;;;;;2.17;1.00;;;;;;;;;;5068804;28;20219;-64
2022/05/13 00:27:56;;;;;;;4.78;1.40;;;;;;;;;;5051396;28;20186;-65
2022/05/13 00:30:22;;;;;;;7.45;1.23;;;;;;;;;;5059729;28;20485;-64
2022/05/13 00:32:49;;;;;;;3.03;0.90;;;;;;;;;;5066227;28;20217;-64
2022/05/13 00:35:15;;;;;;;5.72;1.40;;;;;;;;;;5066453;28;20173;-64
2022/05/13 00:37:41;;;;;;;4.38;1.67;;;;;;;;;;5061118;28;20189;-64
2022/05/13 00:40:07;;;;;;;2.58;1.30;;;;;;;;;;5066970;28;20626;-64
2022/05/13 00:42:32;;;;;;;4.40;1.23;;;;;;;;;;5064734;28;20192;-65
2022/05/13 00:44:58;;;;;;;2.42;0.93;;;;;;;;;;5055726;28;20197;-64
2022/05/13 00:47:24;;;;;;;2.53;1.08;;;;;;;;;;5060475;28;20180;-64
2022/05/13 00:49:50;;;;;;;3.88;1.10;;;;;;;;;;5059311;28;20277;-66
2022/05/13 00:52:16;;;;;;;5.25;1.20;;;;;;;;;;5059188;28;20211;-65
2022/05/13 00:54:42;;;;;;;10.27;1.50;;;;;;;;;;5063654;28;20411;-64
2022/05/13 00:57:11;;;;;;;8.55;1.23;;;;;;;;;;5063588;28;20222;-65
2022/05/13 00:59:39;;;;;;;4.68;0.90;;;;;;;;;;5068291;28;20227;-65
2022/05/13 01:02:05;;;;;;;4.00;0.82;;;;;;;;;;5063948;28;20203;-66
2022/05/13 01:04:31;;;;;;;2.35;0.88;;;;;;;;;;5059406;28;20197;-65
2022/05/13 01:06:59;;;;;;;4.10;1.05;;;;;;;;;;5055966;28;20191;-65
2022/05/13 01:09:31;;;;;;;5.70;1.00;;;;;;;;;;5054864;28;20224;-64
2022/05/13 01:11:58;;;;;;;6.65;1.05;;;;;;;;;;5060276;28;20243;-65
2022/05/13 01:14:34;;;;;;;2.38;0.90;;;;;;;;;;5065457;28;20176;-64
2022/05/13 01:20:09;;;;;;;2.05;1.00;;;;;;;;;;5059534;28;20519;-64
2022/05/13 01:22:47;;;;;;;1.90;0.90;;;;;;;;;;5060677;28;20181;-64
2022/05/13 01:25:17;;;;;;;2.33;0.80;;;;;;;;;;5065950;28;20192;-64
2022/05/13 01:27:44;;;;;;;2.97;0.85;;;;;;;;;;5062987;28;20265;-64
2022/05/13 01:30:13;;;;;;;7.68;1.05;;;;;;;;;;5061748;28;20185;-64
2022/05/13 01:32:38;;;;;;;6.22;1.13;;;;;;;;;;5066216;28;20219;-64
2022/05/13 01:35:05;;;;;;;3.28;1.15;;;;;;;;;;5052469;28;20189;-64
2022/05/13 01:37:31;;;;;;;3.85;0.80;;;;;;;;;;5071842;28;20181;-64
2022/05/13 01:39:56;;;;;;;2.28;1.00;;;;;;;;;;5060129;28;20185;-64
2022/05/13 01:42:22;;;;;;;3.72;1.20;;;;;;;;;;5057835;28;20322;-64
2022/05/13 01:44:47;;;;;;;3.53;1.05;;;;;;;;;;5059778;28;20242;-64
2022/05/13 01:47:13;;;;;;;4.75;1.00;;;;;;;;;;5076022;28;20230;-64
2022/05/13 01:49:38;;;;;;;4.22;0.85;;;;;;;;;;5064658;28;20556;-64
2022/05/13 01:52:04;;;;;;;3.92;1.23;;;;;;;;;;5062740;28;20586;-64
2022/05/13 01:54:29;;;;;;;5.80;1.15;;;;;;;;;;5060821;28;20177;-68
2022/05/13 01:56:54;;;;;;;10.07;1.52;;;;;;;;;;5066580;28;20192;-65
2022/05/13 01:59:20;;;;;;;5.28;1.17;;;;;;;;;;5064573;28;20606;-65
2022/05/13 02:01:45;;;;;;;5.82;1.20;;;;;;;;;;5063374;28;20189;-65
2022/05/13 02:04:10;;;;;;;3.65;1.10;;;;;;;;;;5059594;28;20284;-65
2022/05/13 02:06:36;;;;;;;6.30;1.20;;;;;;;;;;5064302;28;20185;-65
2022/05/13 02:09:01;;;;;;;2.72;1.00;;;;;;;;;;5064075;28;20272;-65
2022/05/13 02:11:29;;;;;;;3.38;1.00;;;;;;;;;;5071015;28;20184;-65
2022/05/13 02:13:55;;;;;;;5.60;1.30;;;;;;;;;;5068445;28;20206;-65
2022/05/13 02:16:21;;;;;;;4.13;1.10;;;;;;;;;;5067602;28;20184;-65
2022/05/13 02:18:46;;;;;;;4.55;1.25;;;;;;;;;;5066577;28;20214;-65
2022/05/13 02:21:13;;;;;;;3.42;1.15;;;;;;;;;;5069407;28;20268;-65
2022/05/13 02:23:38;;;;;;;5.43;1.15;;;;;;;;;;5063153;28;20207;-65
2022/05/13 02:26:08;;;;;;;7.25;1.52;;;;;;;;;;5070378;28;20652;-64
2022/05/13 02:28:34;;;;;;;6.30;1.40;;;;;;;;;;5066686;28;20680;-64
2022/05/13 02:31:00;;;;;;;3.15;1.10;;;;;;;;;;5069349;28;20727;-64
2022/05/13 02:33:29;;;;;;;5.53;1.15;;;;;;;;;;5060877;28;20227;-64
2022/05/13 02:35:55;;;;;;;7.15;1.88;;;;;;;;;;5059388;28;20348;-66
2022/05/13 02:38:21;;;;;;;5.72;1.30;;;;;;;;;;5069534;28;20181;-65
2022/05/13 02:43:31;;;;;;;6.57;1.90;;;;;;;;;;5068953;28;20238;-65
2022/05/13 02:45:58;;;;;;;2.92;1.13;;;;;;;;;;5069296;28;20199;-64
2022/05/13 02:48:24;;;;;;;5.60;1.30;;;;;;;;;;5068706;28;20185;-65
2022/05/13 02:50:49;;;;;;;9.93;1.73;;;;;;;;;;5063953;28;20632;-64
2022/05/13 02:53:15;;;;;;;3.03;0.90;;;;;;;;;;5060107;28;20250;-64
2022/05/13 02:55:40;;;;;;;5.72;1.65;;;;;;;;;;5061203;28;20188;-64
2022/05/13 02:58:06;;;;;;;4.53;1.00;;;;;;;;;;5064534;28;20766;-65
2022/05/13 03:00:32;;;;;;;5.35;1.20;;;;;;;;;;5069494;28;20176;-65
2022/05/13 03:02:57;;;;;;;6.38;1.60;;;;;;;;;;5057993;28;20231;-64
2022/05/13 03:05:23;;;;;;;5.93;1.38;;;;;;;;;;5054426;28;20213;-64
2022/05/13 03:07:50;;;;;;;5.43;1.50;;;;;;;;;;5066267;28;20177;-66
2022/05/13 03:10:15;;;;;;;4.97;1.60;;;;;;;;;;5060446;28;20221;-64
2022/05/13 03:12:41;;;;;;;7.85;1.70;;;;;;;;;;5054225;28;20576;-65
2022/05/13 03:15:07;;;;;;;8.27;1.90;;;;;;;;;;5069234;28;20197;-64
2022/05/13 03:17:34;;;;;;;4.65;1.63;;;;;;;;;;5066827;28;20250;-64
2022/05/13 03:20:00;;;;;;;4.82;1.50;;;;;;;;;;5065221;28;20660;-64
2022/05/13 03:22:25;;;;;;;5.88;1.38;;;;;;;;;;5061436;28;20184;-64
2022/05/13 03:24:51;;;;;;;7.50;1.58;;;;;;;;;;5055744;28;20201;-64
2022/05/13 03:27:16;;;;;;;8.00;2.10;;;;;;;;;;5061965;28;20559;-64
2022/05/13 03:29:41;;;;;;;9.73;1.80;;;;;;;;;;5065384;28;20181;-64
2022/05/13 03:32:08;;;;;;;6.35;1.77;;;;;;;;;;5063195;28;20220;-64
2022/05/13 03:34:37;;;;;;;6.72;1.63;;;;;;;;;;5067618;28;20184;-64
2022/05/13 03:37:03;;;;;;;3.67;1.70;;;;;;;;;;5054272;28;20185;-65
2022/05/13 03:39:29;;;;;;;5.10;1.98;;;;;;;;;;5083335;28;20547;-64
2022/05/13 03:41:54;;;;;;;8.63;1.80;;;;;;;;;;5056292;28;20258;-64
2022/05/13 03:44:20;;;;;;;10.65;2.53;;;;;;;;;;5063467;28;20205;-64
2022/05/13 03:46:45;;;;;;;6.85;2.13;;;;;;;;;;5068803;28;20180;-64
2022/05/13 03:49:10;;;;;;;7.28;1.73;;;;;;;;;;5067020;28;20272;-64
2022/05/13 03:51:36;;;;;;;8.73;1.85;;;;;;;;;;5068421;28;20184;-65
2022/05/13 03:54:01;;;;;;;5.78;1.95;;;;;;;;;;5064274;28;20173;-65
2022/05/13 03:56:27;;;;;;;7.40;1.83;;;;;;;;;;5065227;28;20196;-64
2022/05/13 03:58:52;;;;;;;5.53;2.08;;;;;;;;;;5060047;28;20189;-64
2022/05/13 04:01:18;;;;;;;10.05;2.20;;;;;;;;;;5061862;28;20188;-67
2022/05/13 04:03:43;;;;;;;8.57;1.77;;;;;;;;;;5062839;28;20291;-64
2022/05/13 04:08:59;;;;;;;7.82;1.80;;;;;;;;;;5064759;28;20259;-64
2022/05/13 04:11:26;;;;;;;9.35;2.10;;;;;;;;;;5069118;28;20181;-65
2022/05/13 04:16:43;;;;;;;7.72;2.33;;;;;;;;;;5050592;28;20197;-68
2022/05/13 04:19:10;;;;;;;7.45;2.75;;;;;;;;;;5063918;28;20176;-65
2022/05/13 04:21:37;;;;;;;12.30;3.53;;;;;;;;;;5068890;28;20589;-65
2022/05/13 04:24:05;;;;;;;7.47;2.58;;;;;;;;;;5057938;28;20312;-65
2022/05/13 04:26:32;;;;;;;9.73;2.42;;;;;;;;;;5058722;28;20195;-66
2022/05/13 04:28:58;;;;;;;7.80;2.72;;;;;;;;;;5060157;28;20181;-66
2022/05/13 04:31:26;;;;;;;6.85;2.30;;;;;;;;;;5059375;28;20215;-65
2022/05/13 04:33:52;;;;;;;10.60;2.67;;;;;;;;;;5058309;28;20184;-64
2022/05/13 04:36:19;;;;;;;6.82;2.63;;;;;;;;;;5059693;28;20200;-64
2022/05/13 04:38:45;;;;;;;7.68;2.80;;;;;;;;;;5062173;28;20260;-65
2022/05/13 04:43:57;;;;;;;12.60;3.25;;;;;;;;;;5066570;28;20267;-68
2022/05/13 04:46:22;;;;;;;8.50;3.33;;;;;;;;;;5064747;28;20412;-64
2022/05/13 04:48:48;;;;;;;8.88;3.17;;;;;;;;;;5064975;28;20180;-64
2022/05/13 04:51:17;;;;;;;9.55;3.60;;;;;;;;;;5068035;28;20234;-64
2022/05/13 04:53:45;;;;;;;9.93;3.00;;;;;;;;;;5079042;28;20547;-64
2022/05/13 04:56:10;;;;;;;12.75;3.30;;;;;;;;;;5062904;28;20187;-65
2022/05/13 04:58:38;;;;;;;13.57;3.80;;;;;;;;;;5062836;28;20263;-65
2022/05/13 05:01:05;;;;;;;15.95;3.53;;;;;;;;;;5058665;28;20205;-66
2022/05/13 05:03:32;;;;;;;17.95;3.08;;;;;;;;;;5059130;28;20335;-65
2022/05/13 05:05:58;;;;;;;8.93;3.10;;;;;;;;;;5062945;28;20625;-65
2022/05/13 05:08:24;;;;;;;8.27;3.65;;;;;;;;;;5061364;28;20192;-65
2022/05/13 05:10:50;;;;;;;9.07;3.28;;;;;;;;;;5060400;28;20248;-69
2022/05/13 05:13:21;;;;;;;12.93;3.35;;;;;;;;;;5065186;28;20207;-65
2022/05/13 05:15:46;;;;;;;10.48;3.17;;;;;;;;;;5063247;28;20213;-65
2022/05/13 05:18:13;;;;;;;15.35;3.35;;;;;;;;;;5063544;28;20212;-65
2022/05/13 05:20:38;;;;;;;15.07;3.33;;;;;;;;;;5058670;28;20189;-65
2022/05/13 05:23:05;;;;;;;8.40;3.00;;;;;;;;;;5063805;28;20695;-64
2022/05/13 05:25:30;;;;;;;15.98;3.20;;;;;;;;;;5053886;28;20673;-66
2022/05/13 05:27:56;;;;;;;10.77;3.30;;;;;;;;;;5064273;28;20177;-65
2022/05/13 05:30:22;;;;;;;14.23;3.75;;;;;;;;;;5066230;28;20515;-65
2022/05/13 05:32:48;;;;;;;13.75;3.78;;;;;;;;;;5071627;28;20836;-66
2022/05/13 05:35:18;;;;;;;11.40;3.03;;;;;;;;;;5067333;28;20191;-66
2022/05/13 05:37:43;;;;;;;12.45;3.85;;;;;;;;;;5069462;28;20184;-65
2022/05/13 05:40:10;;;;;;;8.27;3.33;;;;;;;;;;5073106;28;20377;-68
2022/05/13 05:42:40;;;;;;;8.00;3.15;;;;;;;;;;5073410;28;20291;-66
2022/05/13 05:45:08;;;;;;;10.13;3.20;;;;;;;;;;5067762;28;20200;-65
2022/05/13 05:47:34;;;;;;;12.27;3.53;;;;;;;;;;5073445;28;20537;-65
2022/05/13 05:50:00;;;;;;;15.15;3.63;;;;;;;;;;5067763;28;20196;-65
2022/05/13 05:52:25;;;;;;;13.02;3.63;;;;;;;;;;5072059;28;20673;-65
2022/05/13 05:57:35;;;;;;;15.00;4.10;;;;;;;;;;5073646;28;20680;-65
2022/05/13 06:00:01;;;;;;;15.90;3.60;;;;;;;;;;5069983;28;20176;-65
2022/05/13 06:02:27;;;;;;;10.25;3.60;;;;;;;;;;5072112;28;20230;-66
2022/05/13 06:04:52;;;;;;;15.68;4.15;;;;;;;;;;5071520;28;20704;-67
2022/05/13 06:07:18;;;;;;;20.65;3.75;;;;;;;;;;5071377;28;20293;-66
2022/05/13 06:09:44;;;;;;;10.55;3.83;;;;;;;;;;5067948;28;20575;-65
2022/05/13 06:12:11;;;;;;;9.88;3.40;;;;;;;;;;5070896;28;20666;-67
2022/05/13 06:14:37;;;;;;;11.43;3.40;;;;;;;;;;5068824;28;20185;-65
2022/05/13 06:17:03;;;;;;;13.00;3.80;;;;;;;;;;5070906;28;20203;-66
2022/05/13 06:19:29;;;;;;;13.35;4.07;;;;;;;;;;5070234;28;20216;-66
2022/05/13 06:21:55;;;;;;;16.45;4.28;;;;;;;;;;5061404;28;20173;-68
2022/05/13 06:24:21;;;;;;;14.85;4.40;;;;;;;;;;5064023;28;20679;-66
2022/05/13 06:26:48;;;;;;;12.40;3.53;;;;;;;;;;5062220;28;20212;-67
2022/05/13 06:29:17;;;;;;;18.10;4.07;;;;;;;;;;5068102;28;20180;-68
2022/05/13 06:31:43;;;;;;;13.75;4.30;;;;;;;;;;5070307;28;20745;-69
2022/05/13 06:34:09;;;;;;;11.23;3.60;;;;;;;;;;5070151;28;20255;-66
2022/05/13 06:36:34;;;;;;;16.23;3.88;;;;;;;;;;5070795;28;20228;-66
2022/05/13 06:39:00;;;;;;;19.55;5.03;;;;;;;;;;5071847;28;20250;-66
2022/05/13 06:41:26;;;;;;;13.55;3.70;;;;;;;;;;5069346;28;20773;-66
2022/05/13 06:43:52;;;;;;;12.43;4.18;;;;;;;;;;5067746;28;20522;-67
2022/05/13 06:46:17;;;;;;;12.65;3.80;;;;;;;;;;5067306;28;20519;-66
2022/05/13 06:48:43;;;;;;;16.70;3.67;;;;;;;;;;5068839;28;20180;-66
2022/05/13 06:51:08;;;;;;;18.05;3.90;;;;;;;;;;5067840;28;20249;-66
2022/05/13 06:53:34;;;;;;;19.40;4.38;;;;;;;;;;5064868;28;20608;-67
2022/05/13 06:55:59;;;;;;;9.27;3.72;;;;;;;;;;5066326;28;20706;-67
2022/05/13 06:58:25;;;;;;;12.05;3.80;;;;;;;;;;5068405;28;20189;-68
2022/05/13 07:00:51;;;;;;;11.95;3.95;;;;;;;;;;5065918;28;20173;-66
2022/05/13 07:03:18;;;;;;;15.15;3.83;;;;;;;;;;5059647;28;20201;-66
2022/05/13 07:05:44;;;;;;;14.88;4.50;;;;;;;;;;5066616;28;20628;-66
2022/05/13 07:08:10;;;;;;;14.10;3.45;;;;;;;;;;5066501;28;20442;-65
2022/05/13 07:10:39;;;;;;;15.15;3.50;;;;;;;;;;5067237;28;20747;-65
2022/05/13 07:13:05;;;;;;;14.40;3.92;;;;;;;;;;5067365;28;20207;-68
2022/05/13 07:15:30;;;;;;;15.98;3.88;;;;;;;;;;5066605;28;20704;-65
2022/05/13 07:17:56;;;;;;;14.40;3.97;;;;;;;;;;5067354;28;20275;-66
2022/05/13 07:20:23;;;;;;;10.85;3.50;;;;;;;;;;5066327;28;20180;-65
2022/05/13 07:22:48;;;;;;;13.73;3.28;;;;;;;;;;5066251;28;20737;-66
2022/05/13 07:25:13;;;;;;;7.50;3.30;;;;;;;;;;5062981;28;20202;-68
2022/05/13 07:27:39;;;;;;;13.80;3.30;;;;;;;;;;5067026;28;20176;-67
2022/05/13 07:30:05;;;;;;;9.25;3.08;;;;;;;;;;5062583;28;20205;-65
2022/05/13 07:32:30;;;;;;;9.27;3.50;;;;;;;;;;5067268;28;20211;-67
2022/05/13 07:34:56;;;;;;;7.75;3.40;;;;;;;;;;5065346;28;20170;-67
2022/05/13 07:37:21;;;;;;;7.50;3.17;;;;;;;;;;5062645;28;20257;-65
2022/05/13 07:42:30;;;;;;;11.00;2.97;;;;;;;;;;5066450;28;20199;-65
2022/05/13 07:44:56;;;;;;;12.52;3.00;;;;;;;;;;5062024;28;20200;-65
2022/05/13 07:47:21;;;;;;;11.40;3.47;;;;;;;;;;5068301;28;20183;-65
2022/05/13 07:49:46;;;;;;;8.65;2.45;;;;;;;;;;5067768;28;20181;-65
2022/05/13 07:52:12;;;;;;;13.65;2.63;;;;;;;;;;5067190;28;20406;-65
2022/05/13 07:54:38;;;;;;;8.02;2.45;;;;;;;;;;5068327;28;20220;-65
2022/05/13 07:57:04;;;;;;;10.02;2.10;;;;;;;;;;5068589;28;20263;-65
2022/05/13 08:00:24;;;;;;;11.25;2.22;;;;;;;;;;5066887;28;20210;-65
2022/05/13 08:02:18;;;;;;;8.10;2.00;;;;;;;;;;5066319;28;20671;-66
2022/05/13 08:04:43;;;;;;;8.13;2.03;;;;;;;;;;5061071;28;20197;-65
2022/05/13 08:07:09;;;;;;;5.72;2.05;;;;;;;;;;5068530;28;20193;-65
2022/05/13 08:09:34;;;;;;;6.18;2.22;;;;;;;;;;5066556;28;20221;-65
2022/05/13 08:11:59;;;;;;;8.48;1.88;;;;;;;;;;5062427;28;20192;-65
2022/05/13 08:14:25;;;;;;;7.65;1.98;;;;;;;;;;5068454;28;20175;-69
2022/05/13 08:16:50;;;;;;;7.93;2.00;;;;;;;;;;5061985;28;20390;-67
2022/05/13 08:19:16;;;;;;;8.10;2.08;;;;;;;;;;5068456;28;20700;-65
2022/05/13 08:21:41;;;;;;;7.95;1.80;;;;;;;;;;5061592;28;20184;-68
2022/05/13 08:24:06;;;;;;;6.07;2.08;;;;;;;;;;5065962;28;20192;-65
2022/05/13 08:26:32;;;;;;;9.88;2.40;;;;;;;;;;5060146;28;20230;-65
2022/05/13 08:28:57;;;;;;;4.57;1.70;;;;;;;;;;5067005;28;20185;-65
2022/05/13 08:31:23;;;;;;;7.22;1.83;;;;;;;;;;5066229;28;20206;-67
2022/05/13 08:33:48;;;;;;;7.78;2.13;;;;;;;;;;5065464;28;20523;-65
2022/05/13 08:36:13;;;;;;;11.75;2.67;;;;;;;;;;5066096;28;20552;-66
2022/05/13 08:38:40;;;;;;;5.30;1.52;;;;;;;;;;5067355;28;20280;-66
2022/05/13 08:41:15;;;;;;;7.38;1.60;;;;;;;;;;5063310;28;20268;-68
2022/05/13 08:43:47;;;;;;;4.97;1.63;;;;;;;;;;5067443;28;20183;-67
2022/05/13 08:46:32;;;;;;;11.50;2.03;;;;;;;;;;5067266;28;20192;-65
2022/05/13 08:49:22;;;;;;;6.85;1.92;;;;;;;;;;5066061;28;20454;-66
2022/05/13 08:53:06;;;;;;;7.22;1.63;;;;;;;;;;5065940;28;20291;-68
2022/05/13 08:54:57;;;;;;;5.93;1.05;;;;;;;;;;5064544;28;20188;-66
2022/05/13 08:57:27;;;;;;;13.80;2.03;;;;;;;;;;5064826;28;20191;-68
2022/05/13 09:00:03;;;;;;;7.47;1.77;;;;;;;;;;5067376;28;20697;-68
2022/05/13 09:02:34;;;;;;;4.72;1.20;;;;;;;;;;5066087;28;20190;-66
2022/05/13 09:05:10;;;;;;;4.53;1.45;;;;;;;;;;5064141;28;20191;-66
2022/05/13 09:07:37;;;;;;;5.22;1.48;;;;;;;;;;5066573;28;20618;-65
2022/05/13 09:10:05;;;;;;;5.65;1.25;;;;;;;;;;5063403;28;20289;-68
2022/05/13 09:12:50;;;;;;;3.38;1.05;;;;;;;;;;5064789;28;20517;-65
2022/05/13 09:15:45;;;;;;;6.85;1.35;;;;;;;;;;5065921;28;20173;-66
2022/05/13 09:18:28;;;;;;;5.75;1.38;;;;;;;;;;5058902;28;20279;-65
2022/05/13 09:20:59;;;;;;;9.50;1.35;;;;;;;;;;5066193;28;20176;-65
2022/05/13 09:23:26;;;;;;;5.60;1.48;;;;;;;;;;5067635;28;20177;-67
2022/05/13 09:26:03;;;;;;;4.57;1.05;;;;;;;;;;5066666;28;20287;-68
2022/05/13 09:28:30;;;;;;;3.35;0.90;;;;;;;;;;5064751;28;20180;-69
2022/05/13 09:31:05;;;;;;;2.65;0.98;;;;;;;;;;5065019;28;20477;-66
2022/05/13 09:33:38;;;;;;;6.90;1.65;;;;;;;;;;5065064;28;20191;-69
2022/05/13 09:36:06;;;;;;;4.10;1.30;;;;;;;;;;5066141;28;20651;-67
2022/05/13 09:38:41;;;;;;;3.45;1.17;;;;;;;;;;5067681;28;20234;-65
2022/05/13 09:41:10;;;;;;;3.88;0.88;;;;;;;;;;5066326;28;20184;-69
2022/05/13 09:43:44;;;;;;;7.47;1.25;;;;;;;;;;5065730;28;20538;-66
2022/05/13 09:46:22;;;;;;;4.75;1.13;;;;;;;;;;5066226;28;20576;-67
2022/05/13 09:49:01;;;;;;;4.10;1.02;;;;;;;;;;5066192;28;20198;-68
2022/05/13 09:51:36;;;;;;;6.60;1.00;;;;;;;;;;5064110;28;20254;-69
2022/05/13 09:54:23;;;;;;;6.50;0.90;;;;;;;;;;5064116;28;20192;-69
2022/05/13 09:56:53;;;;;;;5.45;1.10;;;;;;;;;;5063865;28;20184;-66
2022/05/13 09:59:25;;;;;;;2.25;1.08;;;;;;;;;;5065618;28;20169;-68
2022/05/13 10:01:50;;;;;;;4.70;0.90;;;;;;;;;;5063228;28;20213;-67
2022/05/13 10:04:25;;;;;;;5.13;1.05;;;;;;;;;;5066517;28;20274;-68
2022/05/13 10:07:05;;;;;;;5.10;1.38;;;;;;;;;;5063962;28;20172;-66
2022/05/13 10:15:32;;;;;;;6.22;1.30;;;;;;;;;;5064356;28;20180;-66
2022/05/13 10:18:12;;;;;;;6.65;1.20;;;;;;;;;;5068918;28;20189;-66
2022/05/13 10:20:43;;;;;;;7.30;1.00;;;;;;;;;;5070427;28;20205;-69
2022/05/13 10:23:20;;;;;;;6.85;0.80;;;;;;;;;;5070009;28;20537;-67
2022/05/13 10:26:10;;;;;;;3.45;1.15;;;;;;;;;;5069024;28;20188;-66
2022/05/13 10:28:52;;;;;;;3.53;1.05;;;;;;;;;;5070705;28;20242;-67
2022/05/13 10:31:21;;;;;;;5.60;1.10;;;;;;;;;;5069762;28;20192;-66
2022/05/13 10:34:10;;;;;;;4.32;1.05;;;;;;;;;;5060410;28;20705;-65
2022/05/13 10:36:44;;;;;;;5.57;0.98;;;;;;;;;;5038222;28;20204;-66
2022/05/13 10:39:22;;;;;;;4.75;1.00;;;;;;;;;;5070229;28;20176;-66
2022/05/13 10:41:55;;;;;;;3.95;1.00;;;;;;;;;;5067835;28;20172;-66
2022/05/13 10:44:43;;;;;;;3.92;1.33;;;;;;;;;;5070489;28;20788;-66
2022/05/13 10:47:30;;;;;;;3.60;0.93;;;;;;;;;;5068131;28;20208;-67
2022/05/13 10:49:55;;;;;;;2.78;0.95;;;;;;;;;;5068901;28;20184;-67
2022/05/13 10:52:39;;;;;;;2.53;0.75;;;;;;;;;;5067668;28;20241;-67
2022/05/13 10:55:23;;;;;;;2.30;0.80;;;;;;;;;;5068107;28;20535;-66
2022/05/13 10:58:02;;;;;;;3.03;1.10;;;;;;;;;;5068676;28;20177;-68
2022/05/13 11:00:53;;;;;;;3.75;0.75;;;;;;;;;;5068262;28;20202;-69
2022/05/13 11:03:33;;;;;;;4.90;1.23;;;;;;;;;;5067875;28;20207;-68
2022/05/13 11:06:07;;;;;;;2.95;0.70;;;;;;;;;;5066407;28;20196;-68
2022/05/13 11:08:49;;;;;;;4.38;0.73;;;;;;;;;;5067214;28;20570;-66
2022/05/13 11:11:28;;;;;;;4.65;0.90;;;;;;;;;;5064592;28;20453;-67
2022/05/13 11:14:39;;;;;;;2.97;0.70;;;;;;;;;;5067253;28;20659;-67
2022/05/13 11:17:27;;;;;;;2.08;0.77;;;;;;;;;;5025764;28;20260;-68
2022/05/13 11:19:52;;;;;;;2.13;0.82;;;;;;;;;;5066715;28;20196;-69
2022/05/13 11:22:30;;;;;;;2.45;1.02;;;;;;;;;;5068741;28;20176;-71
2022/05/13 11:28:25;;;;;;;3.22;0.90;;;;;;;;;;5067245;28;20249;-66
2022/05/13 11:31:24;;;;;;;5.78;1.00;;;;;;;;;;5068569;28;20201;-66
2022/05/13 11:33:57;;;;;;;3.60;1.00;;;;;;;;;;5061748;28;20241;-66
2022/05/13 11:36:35;;;;;;;2.90;0.80;;;;;;;;;;5064455;28;20330;-68
2022/05/13 11:39:09;;;;;;;5.95;1.05;;;;;;;;;;5061582;28;20185;-66
2022/05/13 11:41:53;;;;;;;4.35;0.93;;;;;;;;;;5067741;28;20183;-69
2022/05/13 11:44:25;;;;;;;7.22;1.10;;;;;;;;;;5053855;28;20217;-69
2022/05/13 11:46:50;;;;;;;6.47;0.82;;;;;;;;;;5054490;28;20177;-66
2022/05/13 11:49:26;;;;;;;6.22;1.23;;;;;;;;;;5067588;28;20188;-67
2022/05/13 11:51:54;;;;;;;3.50;1.13;;;;;;;;;;5064967;28;20264;-67
2022/05/13 11:54:23;;;;;;;5.50;1.00;;;;;;;;;;5068666;28;20310;-68
2022/05/13 11:57:09;;;;;;;3.38;1.00;;;;;;;;;;5066240;28;20299;-68
2022/05/13 11:59:42;;;;;;;5.03;1.08;;;;;;;;;;5068679;28;20260;-68
2022/05/13 12:02:29;;;;;;;5.32;0.90;;;;;;;;;;5069075;28;20654;-66
2022/05/13 12:05:11;;;;;;;4.50;1.00;;;;;;;;;;5060184;28;20192;-66
2022/05/13 12:07:52;;;;;;;4.05;0.95;;;;;;;;;;5068552;28;20207;-66
2022/05/13 12:10:22;;;;;;;6.00;1.00;;;;;;;;;;5067914;28;20374;-69
2022/05/13 12:13:02;;;;;;;2.70;0.73;;;;;;;;;;5065436;28;20234;-66
2022/05/13 12:15:40;;;;;;;4.45;1.20;;;;;;;;;;5069302;28;20649;-66
2022/05/13 12:18:35;;;;;;;5.10;1.17;;;;;;;;;;5061035;28;20192;-69
2022/05/13 12:21:21;;;;;;;5.75;1.30;;;;;;;;;;5056850;28;20189;-67
2022/05/13 12:24:01;;;;;;;5.95;1.73;;;;;;;;;;5067997;28;20241;-67
2022/05/13 12:26:50;;;;;;;4.90;1.10;;;;;;;;;;5065134;28;20701;-68
2022/05/13 12:29:41;;;;;;;4.85;1.33;;;;;;;;;;5068039;28;20242;-67
2022/05/13 12:32:20;;;;;;;2.53;0.93;;;;;;;;;;5058801;28;20242;-67
2022/05/13 12:37:45;;;;;;;5.15;1.38;;;;;;;;;;5067389;28;20291;-67
2022/05/13 12:40:11;;;;;;;7.28;1.08;;;;;;;;;;5066668;28;20262;-67
2022/05/13 12:42:51;;;;;;;11.20;1.20;;;;;;;;;;5065415;28;20188;-69
2022/05/13 12:45:40;;;;;;;3.55;1.10;;;;;;;;;;5065352;28;20208;-69
2022/05/13 12:48:08;;;;;;;2.95;1.45;;;;;;;;;;5066749;28;20211;-68
2022/05/13 12:50:45;;;;;;;5.72;1.40;;;;;;;;;;5067750;28;20179;-68
2022/05/13 12:53:28;;;;;;;5.78;1.30;;;;;;;;;;5063801;28;20188;-71
2022/05/13 12:56:07;;;;;;;10.52;1.38;;;;;;;;;;5066974;28;20173;-66
2022/05/13 12:58:32;;;;;;;4.15;1.20;;;;;;;;;;5057367;28;20200;-68
2022/05/13 13:01:00;;;;;;;7.82;1.70;;;;;;;;;;5067259;28;20218;-66
2022/05/13 13:03:26;;;;;;;4.10;1.05;;;;;;;;;;5066468;28;20699;-66
2022/05/13 13:05:58;;;;;;;5.47;1.50;;;;;;;;;;5066527;28;20280;-66
2022/05/13 13:08:31;;;;;;;5.50;1.50;;;;;;;;;;5062334;28;20184;-66
2022/05/13 13:11:04;;;;;;;3.55;1.02;;;;;;;;;;5065297;28;20242;-67
2022/05/13 13:13:49;;;;;;;4.60;1.25;;;;;;;;;;5066195;28;20718;-66
2022/05/13 13:16:32;;;;;;;5.00;1.67;;;;;;;;;;5066342;28;20180;-67
2022/05/13 13:19:13;;;;;;;2.88;1.20;;;;;;;;;;5065206;28;20648;-65
2022/05/13 13:21:41;;;;;;;6.18;1.52;;;;;;;;;;5065654;28;20176;-68
2022/05/13 13:24:14;;;;;;;6.57;1.10;;;;;;;;;;5065067;28;20287;-67
2022/05/13 13:26:41;;;;;;;2.40;1.25;;;;;;;;;;5066173;28;20207;-68
2022/05/13 13:29:07;;;;;;;3.33;1.20;;;;;;;;;;5066483;28;20195;-66
2022/05/13 13:31:39;;;;;;;4.32;1.20;;;;;;;;;;5067069;28;20200;-67
2022/05/13 13:34:04;;;;;;;4.10;0.90;;;;;;;;;;5060531;28;20747;-66
2022/05/13 13:36:32;;;;;;;8.35;1.35;;;;;;;;;;5066665;28;20259;-69
2022/05/13 13:39:00;;;;;;;4.43;1.30;;;;;;;;;;5065893;28;20238;-68
2022/05/13 13:41:33;;;;;;;6.85;1.30;;;;;;;;;;5065629;28;20547;-66
2022/05/13 13:44:01;;;;;;;4.22;0.93;;;;;;;;;;5061706;28;20176;-67
2022/05/13 13:46:42;;;;;;;2.33;1.45;;;;;;;;;;5066515;28;20184;-69
2022/05/13 13:49:09;;;;;;;2.58;1.20;;;;;;;;;;5063890;28;20386;-68
2022/05/13 13:51:43;;;;;;;3.75;1.25;;;;;;;;;;5064312;28;20268;-69
2022/05/13 13:54:15;;;;;;;4.03;1.20;;;;;;;;;;5069038;28;20700;-67
2022/05/13 13:56:52;;;;;;;3.15;1.35;;;;;;;;;;5068226;28;20180;-67
2022/05/13 13:59:37;;;;;;;3.78;1.60;;;;;;;;;;5069683;28;20184;-67
2022/05/13 14:02:05;;;;;;;5.88;1.40;;;;;;;;;;5068393;28;20184;-66
2022/05/13 14:04:30;;;;;;;9.07;1.50;;;;;;;;;;5069599;28;20197;-67
2022/05/13 14:06:59;;;;;;;5.97;1.60;;;;;;;;;;5067255;28;20179;-66
2022/05/13 14:09:40;;;;;;;2.90;1.38;;;;;;;;;;5069478;28;20221;-71
2022/05/13 14:12:16;;;;;;;3.00;1.42;;;;;;;;;;5068296;28;20545;-69
2022/05/13 14:14:44;;;;;;;3.03;1.30;;;;;;;;;;5085609;28;20176;-67
2022/05/13 14:17:11;;;;;;;4.18;1.05;;;;;;;;;;5070163;28;20557;-67
2022/05/13 14:19:42;;;;;;;4.20;1.20;;;;;;;;;;5065657;28;20343;-67
2022/05/13 14:22:10;;;;;;;7.95;1.40;;;;;;;;;;5066246;28;20192;-67
2022/05/13 14:24:38;;;;;;;5.85;1.08;;;;;;;;;;5065007;28;20204;-68
2022/05/13 14:27:26;;;;;;;5.15;1.38;;;;;;;;;;5057273;28;20178;-68
2022/05/13 14:29:57;;;;;;;5.32;1.38;;;;;;;;;;5065305;28;20240;-69
2022/05/13 14:32:31;;;;;;;7.97;1.63;;;;;;;;;;5066368;28;20200;-68
2022/05/13 14:35:11;;;;;;;3.00;1.23;;;;;;;;;;5066064;28;20666;-70
2022/05/13 14:37:50;;;;;;;3.70;1.27;;;;;;;;;;5079903;28;20586;-69
2022/05/13 14:40:21;;;;;;;4.82;1.25;;;;;;;;;;5066280;28;20188;-68
2022/05/13 14:42:59;;;;;;;9.55;1.42;;;;;;;;;;5064324;28;20679;-68
2022/05/13 14:45:27;;;;;;;6.40;1.35;;;;;;;;;;5067128;28;20261;-66
2022/05/13 14:48:10;;;;;;;4.13;1.25;;;;;;;;;;5059543;28;20208;-66
2022/05/13 14:50:42;;;;;;;2.67;1.40;;;;;;;;;;5068700;28;20181;-69
2022/05/13 14:53:17;;;;;;;4.43;1.13;;;;;;;;;;5063864;28;20193;-66
2022/05/13 14:55:50;;;;;;;3.40;1.52;;;;;;;;;;5067248;28;20161;-68
2022/05/13 14:58:26;;;;;;;8.02;1.30;;;;;;;;;;5066364;28;20650;-69
2022/05/13 15:00:54;;;;;;;4.68;1.50;;;;;;;;;;5063975;28;20192;-67
2022/05/13 15:03:23;;;;;;;3.88;1.42;;;;;;;;;;5064595;28;20192;-66
2022/05/13 15:05:48;;;;;;;4.78;1.30;;;;;;;;;;5065938;28;20286;-67
2022/05/13 15:08:40;;;;;;;6.75;1.60;;;;;;;;;;5062041;28;20200;-68
2022/05/13 15:11:09;;;;;;;7.07;1.40;;;;;;;;;;5066588;28;20169;-67
2022/05/13 15:13:34;;;;;;;4.43;1.13;;;;;;;;;;5064588;28;20196;-68
2022/05/13 15:16:00;;;;;;;8.00;1.45;;;;;;;;;;5069390;28;20210;-70
2022/05/13 15:18:32;;;;;;;3.38;0.76;;;;;;;;;;4363883;28;10021569;-66
2022/05/13 15:20:58;;;;;;;2.72;1.17;;;;;;;;;;5065421;28;20675;-69
2022/05/13 15:23:23;;;;;;;6.45;1.42;;;;;;;;;;5064200;28;20297;-69
2022/05/13 15:25:48;;;;;;;4.20;1.33;;;;;;;;;;5065868;28;20937;-66
2022/05/13 15:28:16;;;;;;;4.75;1.38;;;;;;;;;;5064169;28;20534;-66
2022/05/13 15:30:42;;;;;;;5.22;1.48;;;;;;;;;;5063946;28;20243;-68